Time;durP1;ratioP1;P1;durP2;ratioP2;P2;SDS_P1;SDS_P2;PMS_P1;PMS_P2;Temp;Humidity;BMP_temperature;BMP_pressure;BME280_temperature;BME280_humidity;BME280_pressure;Samples;Min_cycle;Max_cycle;Signal;HPM_P1;HPM_P2
2022/10/17 00:00:39;;;;;;;7.08;4.65;;;;;;;15.84;49.65;103105.00;1547792;90;21053;-51
2022/10/17 00:03:06;;;;;;;12.23;5.00;;;;;;;15.83;49.68;103108.48;1548009;90;21057;-49
2022/10/17 00:05:40;;;;;;;7.35;4.70;;;;;;;15.83;49.50;103113.73;1548171;90;21065;-51
2022/10/17 00:08:06;;;;;;;8.98;5.20;;;;;;;15.81;49.13;103105.43;1545877;90;21029;-49
2022/10/17 00:10:34;;;;;;;12.43;4.37;;;;;;;15.78;48.77;103109.41;1547340;90;21183;-50
2022/10/17 00:13:01;;;;;;;9.40;5.10;;;;;;;15.75;48.74;103106.34;1517416;92;21102;-53
2022/10/17 00:15:29;;;;;;;7.83;5.05;;;;;;;15.71;48.57;103112.50;1495287;93;21604;-50
2022/10/17 00:17:58;;;;;;;8.20;5.12;;;;;;;15.68;48.43;103116.47;1548193;92;21077;-49
2022/10/17 00:20:25;;;;;;;8.43;5.08;;;;;;;15.63;48.54;103106.86;1543907;91;21101;-50
2022/10/17 00:22:52;;;;;;;5.83;4.40;;;;;;;15.60;48.60;103109.05;1585407;89;21141;-54
2022/10/17 00:25:18;;;;;;;7.97;5.53;;;;;;;15.58;48.70;103113.44;1615216;87;21609;-49
2022/10/17 00:27:46;;;;;;;6.45;5.05;;;;;;;15.55;48.95;103109.53;1637870;85;21525;-49
2022/10/17 00:30:16;;;;;;;6.78;5.08;;;;;;;15.54;48.95;103118.27;1640508;86;21033;-49
2022/10/17 00:32:42;;;;;;;10.95;5.80;;;;;;;15.52;48.87;103117.41;1644827;85;21073;-49
2022/10/17 00:35:11;;;;;;;6.17;5.45;;;;;;;15.48;48.49;103118.30;1657808;85;21037;-53
2022/10/17 00:37:39;;;;;;;9.13;5.62;;;;;;;15.46;48.16;103122.68;1674786;84;21039;-49
2022/10/17 00:40:08;;;;;;;8.68;5.72;;;;;;;15.43;48.04;103127.96;1665211;84;21073;-50
2022/10/17 00:42:34;;;;;;;6.60;5.15;;;;;;;15.39;48.04;103120.95;1670374;84;21520;-50
2022/10/17 00:45:28;;;;;;;7.37;5.95;;;;;;;15.35;47.94;103129.71;1671763;85;21009;-49
2022/10/17 00:48:07;;;;;;;7.75;5.67;;;;;;;15.31;47.61;103133.23;1674855;84;21522;-54
2022/10/17 00:50:35;;;;;;;10.72;6.20;;;;;;;15.24;47.66;103138.05;1645923;85;21002;-51
2022/10/17 00:53:02;;;;;;;7.67;5.95;;;;;;;15.19;47.58;103135.86;1653907;86;21045;-51
2022/10/17 00:55:32;;;;;;;7.35;6.60;;;;;;;15.15;47.31;103138.06;1641871;85;21533;-50
2022/10/17 00:58:01;;;;;;;7.55;5.85;;;;;;;15.11;47.19;103133.27;1644533;86;21060;-51
2022/10/17 01:00:27;;;;;;;6.80;5.97;;;;;;;15.07;46.80;103140.72;1644601;86;21198;-48
2022/10/17 01:02:54;;;;;;;9.03;5.58;;;;;;;15.04;46.69;103135.93;1644499;86;21060;-52
2022/10/17 01:05:21;;;;;;;8.33;6.53;;;;;;;15.02;46.74;103133.75;1644307;86;21055;-54
2022/10/17 01:07:49;;;;;;;8.60;6.35;;;;;;;15.00;46.63;103134.19;1644463;86;21041;-49
2022/10/17 01:10:19;;;;;;;10.28;6.33;;;;;;;14.96;46.49;103131.98;1644415;86;21076;-52
2022/10/17 01:13:09;;;;;;;9.33;6.78;;;;;;;14.92;46.51;103143.83;1644456;86;21362;-48
2022/10/17 01:15:52;;;;;;;8.98;6.10;;;;;;;14.91;46.75;103139.02;1548990;91;21202;-48
2022/10/17 01:18:58;;;;;;;7.55;6.53;;;;;;;14.90;46.64;103136.40;1501936;95;21058;-51
2022/10/17 01:21:33;;;;;;;9.03;6.80;;;;;;;14.87;46.78;103129.84;1464912;97;21097;-51
2022/10/17 01:24:25;;;;;;;9.58;6.78;;;;;;;14.82;46.39;103136.86;1472701;96;21041;-49
2022/10/17 01:27:35;;;;;;;8.83;6.70;;;;;;;14.79;46.43;103137.73;1482468;96;21480;-49
2022/10/17 01:30:34;;;;;;;7.85;6.70;;;;;;;14.74;46.54;103142.09;1441436;99;21629;-51
2022/10/17 01:33:46;;;;;;;9.10;7.55;;;;;;;14.71;46.63;103145.16;1435128;99;21675;-49
2022/10/17 01:36:36;;;;;;;11.20;7.00;;;;;;;14.67;46.39;103151.70;1443897;98;21657;-48
2022/10/17 01:39:11;;;;;;;9.60;7.17;;;;;;;14.61;46.24;103151.70;1446120;99;21102;-49
2022/10/17 01:42:02;;;;;;;10.72;7.15;;;;;;;14.55;46.19;103151.70;1415816;101;21635;-49
2022/10/17 01:44:37;;;;;;;11.68;7.85;;;;;;;14.52;46.07;103153.03;1409133;101;21075;-50
2022/10/17 01:47:08;;;;;;;10.58;7.95;;;;;;;14.47;46.12;103150.84;1371480;103;21116;-49
2022/10/17 01:49:37;;;;;;;9.40;7.90;;;;;;;14.44;45.98;103163.95;1413431;101;21178;-49
2022/10/17 01:52:10;;;;;;;9.15;7.62;;;;;;;14.40;45.99;103167.44;1410490;101;21122;-50
2022/10/17 01:54:45;;;;;;;13.20;8.35;;;;;;;14.37;46.03;103170.05;1403472;101;21150;-48
2022/10/17 01:57:23;;;;;;;10.63;7.83;;;;;;;14.34;46.05;103174.42;1428535;100;21095;-51
2022/10/17 01:59:51;;;;;;;12.98;8.40;;;;;;;14.29;46.17;103174.41;1391409;102;21121;-51
2022/10/17 02:02:19;;;;;;;10.18;8.95;;;;;;;14.26;46.29;103175.66;1358415;103;21196;-50
2022/10/17 02:04:46;;;;;;;11.10;8.13;;;;;;;14.23;46.51;103176.10;1354303;105;21128;-50
2022/10/17 02:07:16;;;;;;;11.68;7.55;;;;;;;14.20;46.68;103178.27;1350492;106;21204;-49
2022/10/17 02:09:42;;;;;;;10.90;8.05;;;;;;;14.18;46.77;103174.78;1354302;106;21174;-49
2022/10/17 02:12:46;;;;;;;12.20;8.45;;;;;;;14.17;46.76;103176.98;1363456;104;21154;-51
2022/10/17 02:15:45;;;;;;;12.53;8.75;;;;;;;14.17;46.77;103180.02;1358972;104;21147;-54
2022/10/17 02:18:38;;;;;;;11.70;8.85;;;;;;;14.16;46.71;103174.33;1356450;105;21201;-48
2022/10/17 02:21:10;;;;;;;12.07;8.95;;;;;;;14.15;46.68;103178.72;1330475;105;21160;-51
2022/10/17 02:24:15;;;;;;;;;;;;;;;14.11;46.74;103182.20;1359848;102;21161;-49
2022/10/17 02:26:53;;;;;;;12.58;9.15;;;;;;;14.08;46.55;103187.42;1393117;102;20143;-50
2022/10/17 02:29:36;;;;;;;15.00;10.00;;;;;;;14.01;46.67;103190.91;1393222;103;21203;-49
2022/10/17 02:32:08;;;;;;;12.37;9.50;;;;;;;13.96;46.72;103192.63;1393347;103;21142;-49
2022/10/17 02:34:45;;;;;;;13.18;10.18;;;;;;;13.91;46.94;103194.34;1393343;103;21142;-50
2022/10/17 02:37:14;;;;;;;13.70;10.20;;;;;;;13.86;46.94;103199.59;1393442;103;21131;-52
2022/10/17 02:39:40;;;;;;;15.75;10.32;;;;;;;13.83;47.18;103193.45;1397236;102;21138;-49
2022/10/17 02:42:10;;;;;;;15.00;10.25;;;;;;;13.80;47.24;103196.95;1397028;102;21172;-49
2022/10/17 02:44:38;;;;;;;14.00;9.73;;;;;;;13.79;47.50;103199.53;1397200;102;21112;-48
2022/10/17 02:47:19;;;;;;;14.90;10.85;;;;;;;13.76;47.81;103196.92;1364527;102;21088;-49
2022/10/17 02:49:52;;;;;;;14.65;10.20;;;;;;;13.77;47.89;103202.58;1326157;108;21182;-51
2022/10/17 02:52:45;;;;;;;13.35;10.80;;;;;;;13.76;48.16;103196.50;1334987;106;21142;-49
2022/10/17 02:55:29;;;;;;;13.08;10.48;;;;;;;13.78;48.33;103203.92;1349996;105;21204;-49
2022/10/17 02:57:59;;;;;;;13.95;10.00;;;;;;;13.79;48.43;103198.23;1325811;106;21249;-49
2022/10/17 03:00:27;;;;;;;14.60;10.13;;;;;;;13.78;48.60;103197.81;1328451;107;21203;-52
2022/10/17 03:02:55;;;;;;;14.15;10.82;;;;;;;13.77;48.82;103196.04;1337654;105;21172;-51
2022/10/17 03:05:28;;;;;;;13.35;10.23;;;;;;;13.77;48.99;103190.81;1354750;104;21125;-54
2022/10/17 03:07:55;;;;;;;12.85;10.08;;;;;;;13.77;49.19;103192.11;1353524;104;21225;-49
2022/10/17 03:10:23;;;;;;;12.90;9.85;;;;;;;13.78;49.46;103188.65;1366337;103;21187;-50
2022/10/17 03:12:52;;;;;;;10.95;9.43;;;;;;;13.78;49.65;103187.34;1403149;98;21220;-50
2022/10/17 03:15:19;;;;;;;12.60;10.25;;;;;;;13.79;49.88;103196.92;1433938;98;21126;-51
2022/10/17 03:17:47;;;;;;;13.30;10.35;;;;;;;13.81;50.02;103192.56;1432298;98;21147;-51
2022/10/17 03:20:15;;;;;;;12.58;9.30;;;;;;;13.82;50.12;103193.02;1435113;99;21090;-51
2022/10/17 03:22:41;;;;;;;11.90;9.48;;;;;;;13.82;50.28;103197.83;1430198;98;21141;-48
2022/10/17 03:25:09;;;;;;;12.28;10.10;;;;;;;13.83;50.42;103201.30;1451276;97;21181;-50
2022/10/17 03:27:36;;;;;;;13.08;10.08;;;;;;;13.85;50.66;103203.05;1518089;92;21091;-54
2022/10/17 03:30:04;;;;;;;16.05;11.00;;;;;;;13.88;50.73;103200.89;1586490;88;21112;-52
2022/10/17 03:32:34;;;;;;;13.83;10.18;;;;;;;13.90;50.67;103209.63;1609814;87;21091;-50
2022/10/17 03:35:02;;;;;;;17.98;10.30;;;;;;;13.91;50.65;103215.28;1651597;83;21039;-50
2022/10/17 03:37:29;;;;;;;14.03;10.13;;;;;;;13.92;50.63;103219.66;1702532;82;21041;-49
2022/10/17 03:39:56;;;;;;;15.25;10.10;;;;;;;13.91;50.54;103217.89;1707004;82;21042;-50
2022/10/17 03:42:23;;;;;;;11.08;8.95;;;;;;;13.89;50.54;103220.52;1707283;83;21058;-49
2022/10/17 03:44:50;;;;;;;11.97;8.88;;;;;;;13.89;50.56;103219.63;1702994;83;21050;-50
2022/10/17 03:47:16;;;;;;;12.35;9.13;;;;;;;13.88;50.72;103221.83;1717938;82;21495;-49
2022/10/17 03:49:43;;;;;;;14.65;10.38;;;;;;;13.87;50.82;103218.33;1705644;82;21054;-49
2022/10/17 03:52:12;;;;;;;13.35;9.90;;;;;;;13.88;51.01;103219.21;1707944;81;20986;-51
2022/10/17 03:54:39;;;;;;;11.53;9.53;;;;;;;13.90;51.05;103218.78;1708415;83;21082;-49
2022/10/17 03:57:06;;;;;;;14.53;9.85;;;;;;;13.91;51.06;103211.35;1708328;82;21472;-51
2022/10/17 03:59:33;;;;;;;12.35;9.90;;;;;;;13.91;51.23;103212.66;1706705;82;21541;-49
2022/10/17 04:02:02;;;;;;;12.80;9.43;;;;;;;13.93;51.37;103214.84;1705210;82;21015;-49
2022/10/17 04:04:30;;;;;;;12.93;9.68;;;;;;;13.95;51.50;103217.03;1706197;82;21510;-51
2022/10/17 04:06:57;;;;;;;12.33;9.73;;;;;;;13.98;51.63;103215.75;1704999;82;21058;-49
2022/10/17 04:09:25;;;;;;;11.65;9.73;;;;;;;14.01;51.84;103218.39;1705898;82;21507;-50
2022/10/17 04:11:53;;;;;;;12.03;9.10;;;;;;;14.01;51.95;103221.02;1703249;82;21085;-49
2022/10/17 04:14:20;;;;;;;10.70;8.80;;;;;;;14.02;52.07;103222.75;1695557;82;21495;-51
2022/10/17 04:16:49;;;;;;;11.65;8.85;;;;;;;14.04;52.34;103221.00;1708215;82;21507;-51
2022/10/17 04:19:17;;;;;;;11.97;8.33;;;;;;;14.05;52.56;103221.89;1707407;82;21573;-49
2022/10/17 04:21:46;;;;;;;14.15;8.80;;;;;;;14.06;52.57;103228.43;1705753;82;21078;-54
2022/10/17 04:24:15;;;;;;;13.40;8.63;;;;;;;14.07;52.73;103230.19;1704309;82;21039;-49
2022/10/17 04:26:53;;;;;;;13.62;9.30;;;;;;;14.07;53.06;103238.05;1709978;82;21542;-50
2022/10/17 04:29:24;;;;;;;14.10;9.00;;;;;;;14.07;52.98;103238.05;1704112;83;21038;-52
2022/10/17 04:31:52;;;;;;;9.80;7.97;;;;;;;14.08;52.85;103247.63;1697206;83;21514;-50
2022/10/17 04:34:20;;;;;;;11.95;8.43;;;;;;;14.07;52.98;103253.75;1704582;83;21521;-52
2022/10/17 04:36:47;;;;;;;14.68;9.40;;;;;;;14.09;53.18;103254.63;1694196;83;21031;-49
2022/10/17 04:39:14;;;;;;;11.25;8.55;;;;;;;14.10;52.97;103258.98;1703173;82;21035;-51
2022/10/17 04:41:41;;;;;;;14.35;7.80;;;;;;;14.11;52.93;103255.52;1703130;82;21000;-49
2022/10/17 04:44:10;;;;;;;12.28;8.23;;;;;;;14.13;52.74;103264.25;1703340;82;21530;-50
2022/10/17 04:46:38;;;;;;;13.00;8.38;;;;;;;14.12;52.43;103265.10;1703384;82;21053;-51
2022/10/17 04:49:05;;;;;;;11.60;8.15;;;;;;;14.12;52.53;103272.95;1705274;82;21465;-53
2022/10/17 04:51:32;;;;;;;11.83;9.20;;;;;;;14.11;52.53;103278.20;1706069;82;21558;-49
2022/10/17 04:54:09;;;;;;;13.55;9.18;;;;;;;14.10;52.85;103285.17;1704485;82;21283;-51
2022/10/17 04:56:38;;;;;;;13.10;9.30;;;;;;;14.09;53.23;103296.52;1705202;82;21514;-48
2022/10/17 04:59:05;;;;;;;11.05;8.63;;;;;;;14.08;53.42;103293.88;1703665;82;21521;-51
2022/10/17 05:01:34;;;;;;;10.28;7.83;;;;;;;14.09;53.50;103291.72;1711285;82;21538;-54
2022/10/17 05:04:00;;;;;;;9.83;7.87;;;;;;;14.11;53.24;103293.48;1705416;83;20974;-51
2022/10/17 05:06:27;;;;;;;8.90;7.40;;;;;;;14.10;52.81;103293.02;1706292;82;21026;-50
2022/10/17 05:09:05;;;;;;;9.45;7.15;;;;;;;14.12;52.72;103296.95;1704324;83;21038;-51
2022/10/17 05:11:32;;;;;;;11.48;7.58;;;;;;;14.13;52.61;103308.77;1705188;82;21046;-50
2022/10/17 05:14:01;;;;;;;9.98;7.45;;;;;;;14.13;52.79;103315.73;1703267;82;21069;-50
2022/10/17 05:16:29;;;;;;;9.95;7.83;;;;;;;14.14;52.63;103318.34;1693756;82;21006;-51
2022/10/17 05:18:57;;;;;;;9.40;7.37;;;;;;;14.16;52.32;103313.98;1695425;84;21018;-52
2022/10/17 05:21:28;;;;;;;11.40;7.40;;;;;;;14.16;51.89;103314.42;1706414;83;21050;-50
2022/10/17 05:23:56;;;;;;;10.93;7.92;;;;;;;14.12;51.24;103317.89;1706294;82;21554;-50
2022/10/17 05:26:23;;;;;;;11.28;7.80;;;;;;;14.06;51.01;103324.41;1694538;82;21045;-50
2022/10/17 05:28:53;;;;;;;9.48;6.97;;;;;;;14.04;51.00;103330.96;1705205;82;21086;-51
2022/10/17 05:31:21;;;;;;;11.70;8.07;;;;;;;14.02;50.92;103336.62;1706627;82;21506;-51
2022/10/17 05:33:48;;;;;;;9.53;7.37;;;;;;;13.97;50.75;103332.24;1706649;82;21061;-54
2022/10/17 05:36:16;;;;;;;12.85;8.25;;;;;;;13.95;50.70;103332.67;1703819;82;21041;-53
2022/10/17 05:38:43;;;;;;;13.20;8.03;;;;;;;13.94;50.90;103338.33;1705487;82;21503;-50
2022/10/17 05:41:10;;;;;;;8.23;6.37;;;;;;;13.92;51.19;103342.68;1706399;83;21050;-50
2022/10/17 05:43:38;;;;;;;10.10;7.15;;;;;;;13.92;51.23;103347.92;1693801;82;21017;-50
2022/10/17 05:46:05;;;;;;;9.43;7.17;;;;;;;13.90;51.31;103353.58;1706278;82;21042;-51
2022/10/17 05:48:33;;;;;;;9.90;7.83;;;;;;;13.91;51.50;103358.39;1704515;82;21050;-49
2022/10/17 05:51:05;;;;;;;13.08;7.00;;;;;;;13.94;51.63;103351.42;1694193;82;21078;-51
2022/10/17 05:53:33;;;;;;;9.08;6.92;;;;;;;13.99;51.58;103360.61;1702638;81;21045;-51
2022/10/17 05:56:04;;;;;;;9.50;7.05;;;;;;;14.04;51.60;103363.69;1702018;83;21034;-55
2022/10/17 05:58:33;;;;;;;9.85;7.22;;;;;;;14.12;51.49;103361.09;1707247;82;21574;-49
2022/10/17 06:01:04;;;;;;;11.55;7.72;;;;;;;14.21;51.12;103364.66;1706437;82;21015;-50
2022/10/17 06:03:32;;;;;;;8.58;7.37;;;;;;;14.28;50.80;103368.18;1704900;82;21026;-51
2022/10/17 06:06:07;;;;;;;12.33;8.55;;;;;;;14.31;50.60;103363.86;1703547;82;20991;-50
2022/10/17 06:08:34;;;;;;;9.08;7.37;;;;;;;14.36;50.57;103366.50;1642147;86;21579;-50
2022/10/17 06:11:02;;;;;;;9.50;7.87;;;;;;;14.39;50.50;103367.38;1677408;84;21076;-49
2022/10/17 06:13:28;;;;;;;11.15;7.08;;;;;;;14.42;50.67;103372.64;1677415;84;21079;-56
2022/10/17 06:15:57;;;;;;;9.80;7.50;;;;;;;14.48;50.59;103366.11;1673983;84;21047;-51
2022/10/17 06:18:25;;;;;;;11.83;7.45;;;;;;;14.56;50.37;103370.94;1642027;86;21042;-50
2022/10/17 06:20:53;;;;;;;12.07;8.00;;;;;;;14.65;50.03;103370.95;1642364;87;21078;-50
2022/10/17 06:23:20;;;;;;;12.18;7.92;;;;;;;14.73;49.98;103371.42;1642180;86;21534;-49
2022/10/17 06:26:00;;;;;;;12.03;8.25;;;;;;;14.77;50.02;103374.06;1631626;86;21595;-53
2022/10/17 06:28:28;;;;;;;10.35;7.28;;;;;;;14.81;50.10;103372.31;1609714;89;21072;-49
2022/10/17 06:30:56;;;;;;;12.65;8.73;;;;;;;14.84;50.22;103374.95;1643810;86;21581;-51
2022/10/17 06:33:23;;;;;;;14.50;7.25;;;;;;;14.85;50.04;103376.69;1643853;87;21117;-52
2022/10/17 06:35:54;;;;;;;11.33;7.28;;;;;;;14.87;50.08;103385.42;1610139;88;21057;-50
2022/10/17 06:38:23;;;;;;;11.12;7.22;;;;;;;14.89;50.12;103381.06;1609740;89;21548;-51
2022/10/17 06:40:52;;;;;;;11.95;7.80;;;;;;;14.93;50.31;103381.08;1641372;87;21137;-49
2022/10/17 06:43:20;;;;;;;12.82;7.17;;;;;;;14.98;50.44;103390.27;1610198;88;21041;-51
2022/10/17 06:45:57;;;;;;;10.13;7.67;;;;;;;15.02;50.28;103394.64;1609388;89;21093;-50
2022/10/17 06:48:27;;;;;;;9.90;8.38;;;;;;;15.05;50.14;103386.77;1647006;86;21073;-49
2022/10/17 06:51:12;;;;;;;10.78;8.23;;;;;;;15.08;50.10;103388.09;1612050;89;21080;-51
2022/10/17 06:53:41;;;;;;;9.78;7.90;;;;;;;15.08;49.92;103389.41;1566206;90;21527;-49
2022/10/17 06:56:28;;;;;;;10.93;7.90;;;;;;;15.07;49.74;103388.95;1538748;92;21162;-49
2022/10/17 06:59:09;;;;;;;9.38;7.42;;;;;;;15.06;49.65;103391.16;1556418;91;21555;-49
2022/10/17 07:01:38;;;;;;;10.10;8.10;;;;;;;15.09;49.66;103392.45;1556372;92;21088;-50
2022/10/17 07:04:05;;;;;;;10.50;7.83;;;;;;;15.10;49.82;103392.91;1553517;92;21111;-49
2022/10/17 07:06:33;;;;;;;10.80;8.30;;;;;;;15.14;50.02;103389.41;1502709;95;21138;-51
2022/10/17 07:09:05;;;;;;;8.08;7.25;;;;;;;15.19;49.96;103391.58;1510668;95;21084;-50
2022/10/17 07:11:36;;;;;;;10.30;7.78;;;;;;;15.22;49.99;103386.36;1514070;95;21131;-49
2022/10/17 07:14:02;;;;;;;10.40;8.10;;;;;;;15.23;49.83;103386.78;1513460;93;21103;-49
2022/10/17 07:16:30;;;;;;;12.63;7.83;;;;;;;15.20;50.10;103389.41;1513498;93;21220;-50
2022/10/17 07:18:59;;;;;;;13.10;8.75;;;;;;;15.22;50.34;103388.98;1510808;93;21137;-51
2022/10/17 07:21:26;;;;;;;13.15;8.60;;;;;;;15.22;50.31;103390.29;1513693;94;21594;-53
2022/10/17 07:23:53;;;;;;;9.63;8.23;;;;;;;15.22;50.29;103396.42;1513459;95;21622;-55
2022/10/17 07:26:20;;;;;;;14.50;8.90;;;;;;;15.22;50.33;103396.84;1512658;95;21589;-51
2022/10/17 07:28:51;;;;;;;10.80;7.75;;;;;;;15.22;50.37;103395.53;1512084;94;21595;-48
2022/10/17 07:31:23;;;;;;;10.75;7.95;;;;;;;15.20;50.36;103398.59;1539578;91;21129;-52
2022/10/17 07:33:50;;;;;;;12.45;8.63;;;;;;;15.21;50.52;103401.64;1572156;90;21579;-51
2022/10/17 07:36:17;;;;;;;12.20;8.08;;;;;;;15.20;50.44;103394.66;1623894;87;21051;-50
2022/10/17 07:38:44;;;;;;;11.65;8.55;;;;;;;15.18;50.62;103396.41;1623523;87;21057;-52
2022/10/17 07:41:12;;;;;;;11.78;8.48;;;;;;;15.18;50.68;103397.72;1623585;87;21139;-50
2022/10/17 07:43:41;;;;;;;8.73;7.15;;;;;;;15.21;50.78;103401.64;1623511;87;21549;-49
2022/10/17 07:46:10;;;;;;;10.30;8.10;;;;;;;15.25;50.80;103402.11;1623762;88;21117;-52
2022/10/17 07:48:38;;;;;;;11.70;7.28;;;;;;;15.27;50.42;103404.30;1623583;87;21522;-49
2022/10/17 07:51:08;;;;;;;9.00;7.50;;;;;;;15.32;50.43;103406.04;1623443;87;21081;-52
2022/10/17 07:53:36;;;;;;;10.08;7.55;;;;;;;15.35;50.16;103402.55;1663608;82;21086;-50
2022/10/17 07:56:08;;;;;;;12.07;8.78;;;;;;;15.38;50.06;103410.41;1707013;83;21089;-50
2022/10/17 07:58:36;;;;;;;10.08;7.08;;;;;;;15.42;50.02;103410.84;1711501;82;21066;-49
2022/10/17 08:01:06;;;;;;;12.05;7.55;;;;;;;15.45;50.09;103412.20;1711219;82;21010;-51
2022/10/17 08:03:33;;;;;;;10.75;7.95;;;;;;;15.48;50.20;103407.82;1664812;84;21014;-49
2022/10/17 08:06:01;;;;;;;11.33;7.80;;;;;;;15.53;49.98;103410.45;1668797;84;21090;-49
2022/10/17 08:08:28;;;;;;;14.13;7.85;;;;;;;15.57;49.95;103409.58;1668968;84;21565;-54
2022/10/17 08:10:57;;;;;;;11.05;7.90;;;;;;;15.62;49.82;103411.73;1668842;84;21113;-50
2022/10/17 08:13:24;;;;;;;8.45;7.03;;;;;;;15.67;49.56;103415.25;1665539;84;21104;-49
2022/10/17 08:15:50;;;;;;;12.28;7.28;;;;;;;15.71;49.51;103411.75;1668790;86;21547;-52
2022/10/17 08:18:17;;;;;;;13.93;7.72;;;;;;;15.73;49.25;103412.62;1669194;84;21094;-48
2022/10/17 08:20:44;;;;;;;10.28;7.50;;;;;;;15.76;49.07;103412.63;1667961;84;21088;-52
2022/10/17 08:23:11;;;;;;;10.45;8.15;;;;;;;15.78;49.06;103418.75;1669325;84;21020;-52
2022/10/17 08:25:38;;;;;;;10.72;7.78;;;;;;;15.83;48.88;103418.29;1669633;84;21060;-50
2022/10/17 08:28:06;;;;;;;10.15;7.55;;;;;;;15.86;48.76;103418.30;1670065;84;21081;-50
2022/10/17 08:30:32;;;;;;;12.60;7.83;;;;;;;15.90;48.77;103417.42;1670498;84;21099;-55
2022/10/17 08:32:59;;;;;;;9.48;7.50;;;;;;;15.96;48.83;103409.53;1670831;85;21107;-49
2022/10/17 08:35:26;;;;;;;8.40;6.67;;;;;;;16.01;48.84;103413.00;1670298;84;21057;-49
2022/10/17 08:37:52;;;;;;;9.43;7.40;;;;;;;16.08;48.66;103408.18;1670531;84;21089;-49
2022/10/17 08:40:25;;;;;;;11.10;7.30;;;;;;;16.14;48.49;103404.22;1670528;84;21069;-52
2022/10/17 08:43:20;;;;;;;9.60;7.12;;;;;;;16.21;48.57;103402.45;1670741;84;21009;-52
2022/10/17 08:45:54;;;;;;;7.87;6.53;;;;;;;16.30;48.48;103411.17;1669945;84;21731;-55
2022/10/17 08:48:23;;;;;;;10.53;6.90;;;;;;;16.40;48.20;103411.16;1656840;84;21093;-49
2022/10/17 08:50:55;;;;;;;10.20;7.60;;;;;;;16.47;48.14;103415.48;1648573;86;21044;-53
2022/10/17 08:53:42;;;;;;;10.15;7.70;;;;;;;16.53;48.18;103411.11;1592290;89;21138;-49
2022/10/17 08:56:25;;;;;;;10.18;6.97;;;;;;;16.61;47.95;103417.67;1594317;89;21117;-54
2022/10/17 08:58:52;;;;;;;10.53;7.12;;;;;;;16.66;47.98;103419.83;1594511;89;21059;-50
2022/10/17 09:01:42;;;;;;;9.15;7.22;;;;;;;16.71;47.81;103420.69;1612573;88;21117;-50
2022/10/17 09:04:46;;;;;;;12.70;7.75;;;;;;;16.76;47.76;103424.15;1608591;88;21621;-49
2022/10/17 09:07:35;;;;;;;9.25;8.03;;;;;;;16.85;47.59;103424.11;1616455;88;21045;-49
2022/10/17 09:10:40;;;;;;;11.90;7.30;;;;;;;16.95;47.31;103431.06;1612618;88;21030;-52
2022/10/17 09:13:40;;;;;;;9.35;6.95;;;;;;;17.04;47.30;103429.70;1607999;88;21640;-49
2022/10/17 09:16:30;;;;;;;8.10;6.95;;;;;;;17.12;46.94;103429.65;1614732;88;21542;-49
2022/10/17 09:19:23;;;;;;;10.75;6.90;;;;;;;17.16;46.89;103424.36;1613758;88;21061;-49
2022/10/17 09:22:00;;;;;;;14.23;6.95;;;;;;;17.19;46.95;103417.74;1601667;88;21078;-54
2022/10/17 09:24:54;;;;;;;10.78;7.28;;;;;;;17.23;46.72;103428.67;1601165;88;21610;-49
2022/10/17 09:27:28;;;;;;;10.55;7.10;;;;;;;17.23;46.77;103422.10;1556102;90;21056;-53
2022/10/17 09:30:16;;;;;;;9.55;7.28;;;;;;;17.29;46.89;103423.84;1560487;90;21103;-52
2022/10/17 09:32:42;;;;;;;11.70;7.25;;;;;;;17.31;47.03;103417.65;1556328;90;21068;-50
2022/10/17 09:35:16;;;;;;;8.98;7.22;;;;;;;17.37;47.28;103413.66;1562761;91;21632;-51
2022/10/17 09:37:43;;;;;;;8.30;6.83;;;;;;;17.45;47.47;103413.18;1551970;91;21134;-49
2022/10/17 09:40:33;;;;;;;10.70;6.65;;;;;;;17.54;47.67;103417.06;1560707;91;21680;-49
2022/10/17 09:43:01;;;;;;;9.83;6.92;;;;;;;17.62;47.89;103413.92;1537611;90;21127;-51
2022/10/17 09:45:29;;;;;;;9.13;7.03;;;;;;;17.73;48.20;103409.87;1506910;94;21115;-51
2022/10/17 09:48:11;;;;;;;7.87;6.42;;;;;;;17.80;48.37;103413.73;1537107;93;21118;-50
2022/10/17 09:50:38;;;;;;;8.40;6.70;;;;;;;17.87;48.33;103405.34;1529540;93;21096;-49
2022/10/17 09:53:25;;;;;;;8.20;6.17;;;;;;;17.95;48.65;103405.28;1535537;93;21108;-50
2022/10/17 09:55:58;;;;;;;9.05;6.03;;;;;;;18.04;48.96;103401.22;1534611;93;21029;-49
2022/10/17 09:58:47;;;;;;;9.18;6.05;;;;;;;18.12;48.92;103402.00;1498576;95;21147;-50
2022/10/17 10:01:20;;;;;;;7.50;5.92;;;;;;;18.20;48.93;103404.10;1524783;93;21151;-52
2022/10/17 10:04:08;;;;;;;6.42;5.28;;;;;;;18.30;49.06;103403.13;1523809;93;21565;-54
2022/10/17 10:06:34;;;;;;;6.92;5.40;;;;;;;18.40;49.32;103398.17;1446540;98;21125;-50
2022/10/17 10:09:04;;;;;;;6.22;5.10;;;;;;;18.52;49.16;103398.05;1422981;99;21193;-52
2022/10/17 10:11:56;;;;;;;6.87;4.80;;;;;;;18.63;49.01;103400.08;1447352;97;21097;-49
2022/10/17 10:14:38;;;;;;;5.20;4.70;;;;;;;18.73;48.62;103395.13;1419654;100;21182;-49
2022/10/17 10:17:34;;;;;;;6.72;4.72;;;;;;;18.84;48.26;103394.95;1416167;100;21164;-50
2022/10/17 10:20:04;;;;;;;6.10;4.30;;;;;;;18.92;47.57;103393.95;1446222;98;21117;-49
2022/10/17 10:22:32;;;;;;;5.87;4.40;;;;;;;18.99;47.07;103398.70;1423404;100;21108;-49
2022/10/17 10:25:16;;;;;;;4.65;3.80;;;;;;;19.05;46.89;103405.20;1464376;97;21132;-54
2022/10/17 10:27:44;;;;;;;5.25;3.80;;;;;;;19.07;46.00;103396.37;1465184;97;21643;-55
2022/10/17 10:30:19;;;;;;;6.55;4.22;;;;;;;19.13;45.68;103398.91;1460044;97;21175;-51
2022/10/17 10:32:48;;;;;;;4.97;3.90;;;;;;;19.18;45.85;103397.09;1467449;97;21578;-48
2022/10/17 10:35:23;;;;;;;4.17;3.77;;;;;;;19.26;45.58;103393.88;1462359;96;21082;-51
2022/10/17 10:37:57;;;;;;;4.95;3.83;;;;;;;19.31;45.31;103395.97;1401945;102;21153;-49
2022/10/17 10:40:28;;;;;;;5.35;4.12;;;;;;;19.35;45.00;103393.73;1443868;98;21084;-50
2022/10/17 10:42:57;;;;;;;6.20;3.70;;;;;;;19.40;45.17;103385.30;1457771;95;21147;-49
2022/10/17 10:45:28;;;;;;;4.20;3.45;;;;;;;19.45;44.71;103383.44;1481817;95;21138;-49
2022/10/17 10:48:04;;;;;;;4.50;3.22;;;;;;;19.52;44.07;103386.84;1487524;92;21192;-51
2022/10/17 10:51:13;;;;;;;5.35;2.87;;;;;;;19.56;43.47;103389.02;1511657;93;21112;-55
2022/10/17 10:53:48;;;;;;;4.37;2.80;;;;;;;19.60;43.10;103382.78;1511480;93;21104;-51
2022/10/17 10:56:27;;;;;;;3.83;3.00;;;;;;;19.64;42.56;103373.89;1511791;93;21134;-48
2022/10/17 10:58:59;;;;;;;6.87;3.10;;;;;;;19.67;42.20;103375.14;1516025;93;21847;-48
2022/10/17 11:01:52;;;;;;;4.12;2.67;;;;;;;19.68;41.63;103368.98;1516371;92;21581;-49
2022/10/17 11:04:43;;;;;;;5.35;3.10;;;;;;;19.68;41.39;103365.02;1516071;93;21601;-50
2022/10/17 11:07:15;;;;;;;2.80;2.60;;;;;;;19.70;41.54;103356.61;1516353;93;21094;-49
2022/10/17 11:10:09;;;;;;;3.22;2.58;;;;;;;19.76;41.22;103351.21;1516333;93;21141;-49
2022/10/17 11:12:50;;;;;;;2.77;2.42;;;;;;;19.78;40.95;103356.89;1506632;93;21141;-49
2022/10/17 11:15:46;;;;;;;2.83;2.33;;;;;;;19.83;40.36;103362.95;1516378;95;21566;-53
2022/10/17 11:18:25;;;;;;;4.08;2.50;;;;;;;19.88;39.45;103369.47;1501981;94;21150;-50
2022/10/17 11:21:06;;;;;;;3.90;2.47;;;;;;;19.92;39.04;103363.23;1506975;94;21077;-49
2022/10/17 11:24:07;;;;;;;2.22;1.87;;;;;;;19.94;38.86;103361.42;1509967;95;21117;-52
2022/10/17 11:26:41;;;;;;;1.98;1.80;;;;;;;19.94;38.84;103361.42;1483620;96;21089;-50
2022/10/17 11:29:10;;;;;;;2.37;2.00;;;;;;;19.99;38.48;103365.70;1465052;97;21698;-51
2022/10/17 11:31:42;;;;;;;3.27;1.85;;;;;;;19.99;37.66;103364.86;1455389;97;21580;-49
2022/10/17 11:34:28;;;;;;;2.60;2.02;;;;;;;19.99;37.93;103368.83;1437784;98;21138;-51
2022/10/17 11:37:05;;;;;;;2.10;1.90;;;;;;;20.01;37.56;103360.41;1475586;95;21144;-50
2022/10/17 11:39:55;;;;;;;2.17;1.98;;;;;;;20.02;37.36;103364.78;1420258;100;21623;-50
2022/10/17 11:42:30;;;;;;;2.22;1.90;;;;;;;20.01;37.09;103361.73;1436753;99;21216;-55
2022/10/17 11:45:07;;;;;;;3.12;1.60;;;;;;;20.02;37.14;103358.17;1431493;99;21129;-49
2022/10/17 11:47:51;;;;;;;2.22;1.62;;;;;;;20.02;36.71;103357.73;1368943;105;21211;-52